createdAt,value
2023-04-13T00:01:12.402Z,6.40
2023-04-13T00:03:42.164Z,6.50
2023-04-13T00:06:11.795Z,6.50
2023-04-13T00:08:45.148Z,6.40
2023-04-13T00:11:15.821Z,6.40
2023-04-13T00:13:47.485Z,6.50
2023-04-13T00:16:18.058Z,6.50
2023-04-13T00:18:47.099Z,6.60
2023-04-13T00:21:17.307Z,6.50
2023-04-13T00:23:48.470Z,6.50
2023-04-13T00:26:20.949Z,6.60
2023-04-13T00:28:49.698Z,6.60
2023-04-13T00:31:23.278Z,6.60
2023-04-13T00:33:52.103Z,6.70
2023-04-13T00:36:24.489Z,6.60
2023-04-13T00:38:54.827Z,6.70
2023-04-13T00:41:24.519Z,6.70
2023-04-13T00:43:54.224Z,6.70
2023-04-13T00:46:23.976Z,6.70
2023-04-13T00:48:52.978Z,6.70
2023-04-13T00:51:23.496Z,6.70
2023-04-13T00:53:54.526Z,6.80
2023-04-13T00:56:23.030Z,6.70
2023-04-13T00:58:54.048Z,6.70
2023-04-13T01:01:23.435Z,6.70
2023-04-13T01:03:53.560Z,6.70
2023-04-13T01:06:28.207Z,6.70
2023-04-13T01:09:05.677Z,6.70
2023-04-13T01:11:39.788Z,6.60
2023-04-13T01:14:16.081Z,6.70
2023-04-13T01:16:49.189Z,6.60
2023-04-13T01:19:30.026Z,6.60
2023-04-13T01:21:58.908Z,6.60
2023-04-13T01:24:44.023Z,6.60
2023-04-13T01:27:20.439Z,6.60
2023-04-13T01:29:52.050Z,6.60
2023-04-13T01:32:22.043Z,6.60
2023-04-13T01:34:52.928Z,6.60
2023-04-13T01:37:22.428Z,6.60
2023-04-13T01:39:52.752Z,6.70
2023-04-13T01:42:27.830Z,6.60
2023-04-13T01:45:00.266Z,6.60
2023-04-13T01:47:29.276Z,6.60
2023-04-13T01:50:08.581Z,6.60
2023-04-13T01:52:53.501Z,6.60
2023-04-13T01:55:24.841Z,6.60
2023-04-13T01:57:58.820Z,6.70
2023-04-13T02:00:38.662Z,6.70
2023-04-13T02:03:13.611Z,6.70
2023-04-13T02:05:42.259Z,6.60
2023-04-13T02:08:10.849Z,6.70
2023-04-13T02:10:47.102Z,6.70
2023-04-13T02:13:17.768Z,6.70
2023-04-13T02:15:48.261Z,6.70
2023-04-13T02:18:20.154Z,6.60
2023-04-13T02:20:50.485Z,6.70
2023-04-13T02:23:22.549Z,6.70
2023-04-13T02:25:51.602Z,6.70
2023-04-13T02:28:21.970Z,6.70
2023-04-13T02:30:52.562Z,6.80
2023-04-13T02:33:22.420Z,6.80
2023-04-13T02:35:52.167Z,6.70
2023-04-13T02:38:20.918Z,6.80
2023-04-13T02:40:56.127Z,6.80
2023-04-13T02:43:26.773Z,6.80
2023-04-13T02:45:58.592Z,6.80
2023-04-13T02:48:32.758Z,6.80
2023-04-13T02:51:02.444Z,6.80
2023-04-13T02:53:36.850Z,6.90
2023-04-13T02:56:09.698Z,6.90
2023-04-13T02:58:39.342Z,6.90
2023-04-13T03:01:15.538Z,6.90
2023-04-13T03:03:46.203Z,6.90
2023-04-13T03:06:15.434Z,6.90
2023-04-13T03:08:48.664Z,6.90
2023-04-13T03:11:23.473Z,6.90
2023-04-13T03:14:01.823Z,6.90
2023-04-13T03:16:34.538Z,6.90
2023-04-13T03:19:07.376Z,6.90
2023-04-13T03:21:39.310Z,6.90
2023-04-13T03:24:13.606Z,6.80
2023-04-13T03:26:43.191Z,6.80
2023-04-13T03:29:15.924Z,6.80
2023-04-13T03:31:48.882Z,6.80
2023-04-13T03:34:18.500Z,6.80
2023-04-13T03:36:48.271Z,6.70
2023-04-13T03:39:20.216Z,6.60
2023-04-13T03:41:49.301Z,6.60
2023-04-13T03:44:19.775Z,6.50
2023-04-13T03:46:50.352Z,6.50
2023-04-13T03:49:31.687Z,6.50
2023-04-13T03:52:02.661Z,6.50
2023-04-13T03:54:37.252Z,6.40
2023-04-13T03:57:06.174Z,6.40
2023-04-13T03:59:36.381Z,6.40
2023-04-13T04:02:09.289Z,6.30
2023-04-13T04:04:42.111Z,6.30
2023-04-13T04:07:11.731Z,6.30
2023-04-13T04:09:41.228Z,6.30
2023-04-13T04:12:10.995Z,6.20
2023-04-13T04:14:44.240Z,6.20
2023-04-13T04:17:26.684Z,6.20
2023-04-13T04:19:55.681Z,6.20
2023-04-13T04:22:30.352Z,6.20
2023-04-13T04:25:00.538Z,6.10
2023-04-13T04:27:29.844Z,6.10
2023-04-13T04:30:05.562Z,6.10
2023-04-13T04:32:42.838Z,6.10
2023-04-13T04:35:19.637Z,6.00
2023-04-13T04:37:55.470Z,6.10
2023-04-13T04:40:26.124Z,6.10
2023-04-13T04:42:57.858Z,6.10
2023-04-13T04:45:45.631Z,6.10
2023-04-13T04:48:17.206Z,6.10
2023-04-13T04:50:56.471Z,6.10
2023-04-13T04:53:28.580Z,6.10
2023-04-13T04:55:58.594Z,6.10
2023-04-13T04:58:52.768Z,6.10
2023-04-13T05:01:26.984Z,6.10
2023-04-13T05:04:08.642Z,6.10
2023-04-13T05:06:42.449Z,6.10
2023-04-13T05:09:15.363Z,6.10
2023-04-13T05:11:50.041Z,6.20
2023-04-13T05:14:26.640Z,6.10
2023-04-13T05:16:57.374Z,6.10
2023-04-13T05:19:56.792Z,6.10
2023-04-13T05:22:31.071Z,6.20
2023-04-13T05:25:09.514Z,6.10
2023-04-13T05:27:38.952Z,6.10
2023-04-13T05:30:09.745Z,6.10
2023-04-13T05:32:41.235Z,6.10
2023-04-13T05:35:15.472Z,6.10
2023-04-13T05:37:46.817Z,6.10
2023-04-13T05:40:23.465Z,6.10
2023-04-13T05:42:54.795Z,6.10
2023-04-13T05:45:28.350Z,6.10
2023-04-13T05:48:07.832Z,6.10
2023-04-13T05:50:38.620Z,6.10
2023-04-13T05:53:09.094Z,6.10
2023-04-13T05:55:50.113Z,6.10
2023-04-13T05:58:19.334Z,6.10
2023-04-13T06:00:52.279Z,6.10
2023-04-13T06:03:32.225Z,6.10
2023-04-13T06:06:04.938Z,6.10
2023-04-13T06:08:33.784Z,6.20
2023-04-13T06:11:03.280Z,6.20
2023-04-13T06:13:33.049Z,6.20
2023-04-13T06:16:04.540Z,6.20
2023-04-13T06:18:33.324Z,6.20
2023-04-13T06:21:03.593Z,6.20
2023-04-13T06:23:32.809Z,6.20
2023-04-13T06:26:06.047Z,6.20
2023-04-13T06:28:47.236Z,6.20
2023-04-13T06:31:16.955Z,6.20
2023-04-13T06:33:49.245Z,6.20
2023-04-13T06:36:26.947Z,6.20
2023-04-13T06:38:58.175Z,6.20
2023-04-13T06:41:28.787Z,6.20
2023-04-13T06:44:13.750Z,6.20
2023-04-13T06:46:54.179Z,6.10
2023-04-13T06:49:26.102Z,6.20
2023-04-13T06:51:56.986Z,6.10
2023-04-13T06:54:25.968Z,6.20
2023-04-13T06:57:03.939Z,6.20
2023-04-13T06:59:33.317Z,6.30
2023-04-13T07:02:02.708Z,6.30
2023-04-13T07:04:34.544Z,6.40
2023-04-13T07:07:07.014Z,6.40
2023-04-13T07:09:36.724Z,6.50
2023-04-13T07:12:08.912Z,6.50
2023-04-13T07:14:39.930Z,6.50
2023-04-13T07:17:13.344Z,6.50
2023-04-13T07:19:47.864Z,6.50
2023-04-13T07:22:18.202Z,6.50
2023-04-13T07:24:49.429Z,6.60
2023-04-13T07:27:22.716Z,6.60
2023-04-13T07:29:54.114Z,6.60
2023-04-13T07:32:30.859Z,6.70
2023-04-13T07:35:01.892Z,6.70
2023-04-13T07:37:38.671Z,6.80
2023-04-13T07:40:11.702Z,6.80
2023-04-13T07:42:43.110Z,6.90
2023-04-13T07:45:12.620Z,6.90
2023-04-13T07:47:41.817Z,6.90
2023-04-13T07:50:11.916Z,6.90
2023-04-13T07:52:42.800Z,6.90
2023-04-13T07:55:23.532Z,6.90
2023-04-13T07:57:53.842Z,6.90
2023-04-13T08:00:23.167Z,6.90
2023-04-13T08:02:59.984Z,6.90
2023-04-13T08:05:33.620Z,6.90
2023-04-13T08:08:04.724Z,6.90
2023-04-13T08:10:37.484Z,6.90
2023-04-13T08:13:09.633Z,6.90
2023-04-13T08:15:38.436Z,6.90
2023-04-13T08:18:07.752Z,6.90
2023-04-13T08:20:37.720Z,7.00
2023-04-13T08:23:09.640Z,7.00
2023-04-13T08:25:44.890Z,7.10
2023-04-13T08:28:13.366Z,7.10
2023-04-13T08:30:42.735Z,7.20
2023-04-13T08:33:12.691Z,7.20
2023-04-13T08:35:41.291Z,7.30
2023-04-13T08:38:15.220Z,7.50
2023-04-13T08:40:50.362Z,7.60
2023-04-13T08:43:24.452Z,7.70
2023-04-13T08:45:53.911Z,7.80
2023-04-13T08:48:24.029Z,7.90
2023-04-13T08:50:58.804Z,8.10
2023-04-13T08:53:30.535Z,8.30
2023-04-13T08:56:03.037Z,8.50
2023-04-13T08:58:37.053Z,8.60
2023-04-13T09:01:07.806Z,8.50
2023-04-13T09:03:46.322Z,8.30
2023-04-13T09:06:16.844Z,8.20
2023-04-13T09:08:48.835Z,8.10
2023-04-13T09:11:18.390Z,8.10
2023-04-13T09:13:50.857Z,8.00
2023-04-13T09:16:20.008Z,8.10
2023-04-13T09:18:58.198Z,8.10
2023-04-13T09:21:38.893Z,8.40
2023-04-13T09:24:09.698Z,8.70
2023-04-13T09:26:42.978Z,9.10
2023-04-13T09:29:14.393Z,9.40
2023-04-13T09:31:45.495Z,9.40
2023-04-13T09:34:15.652Z,9.30
2023-04-13T09:36:54.258Z,9.20
2023-04-13T09:39:29.529Z,9.10
2023-04-13T09:41:59.806Z,9.00
2023-04-13T09:44:31.457Z,9.00
2023-04-13T09:47:02.677Z,9.10
2023-04-13T09:49:41.135Z,9.10
2023-04-13T09:52:20.237Z,9.20
2023-04-13T09:54:52.786Z,9.20
2023-04-13T09:57:26.095Z,9.20
2023-04-13T09:59:56.723Z,9.20
2023-04-13T10:02:25.648Z,9.20
2023-04-13T10:04:54.706Z,9.30
2023-04-13T10:07:26.881Z,9.40
2023-04-13T10:09:59.468Z,9.50
2023-04-13T10:12:30.325Z,9.60
2023-04-13T10:15:06.044Z,9.70
2023-04-13T10:17:49.091Z,9.70
2023-04-13T10:20:19.183Z,9.80
2023-04-13T10:22:48.803Z,9.70
2023-04-13T10:25:32.988Z,9.70
2023-04-13T10:28:02.717Z,9.80
2023-04-13T10:30:32.080Z,9.80
2023-04-13T10:33:06.224Z,9.70
2023-04-13T10:35:40.767Z,9.80
2023-04-13T10:38:11.656Z,10.00
2023-04-13T10:40:46.662Z,10.30
2023-04-13T10:43:28.070Z,10.60
2023-04-13T10:46:11.557Z,10.70
2023-04-13T10:48:41.862Z,10.70
2023-04-13T10:51:10.183Z,10.60
2023-04-13T10:53:38.749Z,10.60
2023-04-13T10:56:19.165Z,10.70
2023-04-13T10:58:53.953Z,10.70
2023-04-13T11:01:23.172Z,10.80
2023-04-13T11:04:03.690Z,11.10
2023-04-13T11:06:38.272Z,11.10
2023-04-13T11:09:14.369Z,11.30
2023-04-13T11:11:56.298Z,11.40
2023-04-13T11:14:25.011Z,11.20
2023-04-13T11:16:58.592Z,11.10
2023-04-13T11:19:27.432Z,11.10
2023-04-13T11:21:58.434Z,11.00
2023-04-13T11:24:34.374Z,10.80
2023-04-13T11:27:08.557Z,10.40
2023-04-13T11:29:37.658Z,10.60
2023-04-13T11:32:06.817Z,10.60
2023-04-13T11:34:35.860Z,10.50
2023-04-13T11:37:06.143Z,10.20
2023-04-13T11:39:38.524Z,10.10
2023-04-13T11:42:09.359Z,10.20
2023-04-13T11:44:38.688Z,10.50
2023-04-13T11:47:11.121Z,10.70
2023-04-13T11:49:42.143Z,10.30
2023-04-13T11:52:11.132Z,10.30
2023-04-13T11:54:40.914Z,10.30
2023-04-13T11:57:13.324Z,10.40
2023-04-13T11:59:42.165Z,10.40
2023-04-13T12:02:20.686Z,10.40
2023-04-13T12:04:50.472Z,10.50
2023-04-13T12:07:19.714Z,10.80
2023-04-13T12:20:07.291Z,11.70
2023-04-13T12:22:51.559Z,11.90
2023-04-13T12:25:33.811Z,12.20
2023-04-13T12:28:06.205Z,12.40
2023-04-13T12:30:35.808Z,12.70
2023-04-13T12:33:04.519Z,12.80
2023-04-13T12:35:32.936Z,12.60
2023-04-13T12:38:03.544Z,12.30
2023-04-13T12:40:32.394Z,12.00
2023-04-13T12:43:01.157Z,11.50
2023-04-13T12:45:31.781Z,10.80
2023-04-13T12:48:00.439Z,10.40
2023-04-13T12:50:30.836Z,9.70
2023-04-13T12:53:00.863Z,9.60
2023-04-13T12:55:30.092Z,9.90
2023-04-13T12:57:59.545Z,10.10
2023-04-13T13:00:28.380Z,10.90
2023-04-13T13:03:10.446Z,12.00
2023-04-13T13:05:43.674Z,13.10
2023-04-13T13:08:12.345Z,14.30
2023-04-13T13:10:41.207Z,14.70
2023-04-13T13:13:11.321Z,14.80
2023-04-13T13:15:40.292Z,15.00
2023-04-13T13:18:11.677Z,15.50
2023-04-13T13:20:41.654Z,16.00
2023-04-13T13:23:12.309Z,15.80
2023-04-13T13:25:50.280Z,15.40
2023-04-13T13:28:25.852Z,14.50
2023-04-13T13:30:55.845Z,13.70
2023-04-13T13:33:26.589Z,13.60
2023-04-13T13:35:55.309Z,13.30
2023-04-13T13:38:24.203Z,13.10
2023-04-13T13:40:53.618Z,12.50
2023-04-13T13:43:22.657Z,12.30
2023-04-13T13:45:51.703Z,12.10
2023-04-13T13:48:21.749Z,12.20
2023-04-13T13:51:01.370Z,12.30
2023-04-13T13:53:30.127Z,12.30
2023-04-13T13:55:58.609Z,12.20
2023-04-13T13:58:27.295Z,12.20
2023-04-13T14:00:56.068Z,12.70
2023-04-13T14:03:24.864Z,13.10
2023-04-13T14:05:53.984Z,13.80
2023-04-13T14:08:25.415Z,14.40
2023-04-13T14:10:54.184Z,15.00
2023-04-13T14:13:23.359Z,15.10
2023-04-13T14:15:52.470Z,15.30
2023-04-13T14:18:21.397Z,15.50
2023-04-13T14:20:50.079Z,15.40
2023-04-13T14:23:19.113Z,15.90
2023-04-13T14:25:48.741Z,16.30
2023-04-13T14:28:17.990Z,16.10
2023-04-13T14:30:46.814Z,15.40
2023-04-13T14:33:16.289Z,14.70
2023-04-13T14:35:45.567Z,14.30
2023-04-13T14:38:14.126Z,14.00
2023-04-13T14:40:42.742Z,13.60
2023-04-13T14:43:12.872Z,13.40
2023-04-13T14:45:42.625Z,13.40
2023-04-13T14:48:11.875Z,13.60
2023-04-13T14:50:40.707Z,13.30
2023-04-13T14:53:09.717Z,13.00
2023-04-13T14:55:38.749Z,12.80
2023-04-13T14:58:07.651Z,12.60
2023-04-13T15:00:42.035Z,12.60
2023-04-13T15:03:14.231Z,13.20
2023-04-13T15:05:50.065Z,13.60
2023-04-13T15:08:19.995Z,14.10
2023-04-13T15:10:49.220Z,14.50
2023-04-13T15:13:23.590Z,14.90
2023-04-13T15:15:55.570Z,15.40
2023-04-13T15:18:26.736Z,15.70
2023-04-13T15:20:56.158Z,16.00
2023-04-13T15:23:24.712Z,16.20
2023-04-13T15:25:53.269Z,16.40
2023-04-13T15:28:22.209Z,16.70
2023-04-13T15:30:53.340Z,16.50
2023-04-13T15:33:22.069Z,16.20
2023-04-13T15:35:52.320Z,15.90
2023-04-13T15:38:21.933Z,15.30
2023-04-13T15:40:51.654Z,15.10
2023-04-13T15:43:22.252Z,15.10
2023-04-13T15:45:54.286Z,15.10
2023-04-13T15:48:23.042Z,14.70
2023-04-13T15:50:59.522Z,14.70
2023-04-13T15:53:29.343Z,14.40
2023-04-13T15:55:57.871Z,14.30
2023-04-13T15:58:27.535Z,14.10
2023-04-13T16:01:05.379Z,14.00
2023-04-13T16:03:35.395Z,14.00
2023-04-13T16:06:05.250Z,14.10
2023-04-13T16:08:34.391Z,14.20
2023-04-13T16:11:02.895Z,14.10
2023-04-13T16:13:48.181Z,14.00
2023-04-13T16:16:20.040Z,13.80
2023-04-13T16:18:49.594Z,13.70
2023-04-13T16:21:20.154Z,13.60
2023-04-13T16:23:48.896Z,13.50
2023-04-13T16:26:17.818Z,13.50
2023-04-13T16:28:46.690Z,13.40
2023-04-13T16:31:16.026Z,13.30
2023-04-13T16:33:46.442Z,13.30
2023-04-13T16:36:15.626Z,13.20
2023-04-13T16:38:44.299Z,13.10
2023-04-13T16:41:13.622Z,13.10
2023-04-13T16:43:42.181Z,13.10
2023-04-13T16:46:13.230Z,13.20
2023-04-13T16:48:42.988Z,13.30
2023-04-13T16:51:14.430Z,13.40
2023-04-13T16:53:44.732Z,13.30
2023-04-13T16:56:16.982Z,13.30
2023-04-13T16:58:46.228Z,13.40
2023-04-13T17:01:15.307Z,13.40
2023-04-13T17:03:44.624Z,13.30
2023-04-13T17:06:17.886Z,13.40
2023-04-13T17:08:49.158Z,13.50
2023-04-13T17:11:18.016Z,13.20
2023-04-13T17:13:46.539Z,13.20
2023-04-13T17:16:16.729Z,13.20
2023-04-13T17:18:46.308Z,12.90
2023-04-13T17:21:16.549Z,12.80
2023-04-13T17:23:46.128Z,12.60
2023-04-13T17:26:15.352Z,12.70
2023-04-13T17:28:44.012Z,12.50
2023-04-13T17:31:12.771Z,12.40
2023-04-13T17:33:41.342Z,12.40
2023-04-13T17:36:10.616Z,12.30
2023-04-13T17:38:41.038Z,12.20
2023-04-13T17:41:11.550Z,12.10
2023-04-13T17:43:40.233Z,12.00
2023-04-13T17:46:09.636Z,12.00
2023-04-13T17:48:38.237Z,11.90
2023-04-13T17:51:11.877Z,11.70
2023-04-13T17:53:42.058Z,11.60
2023-04-13T17:56:16.147Z,11.50
2023-04-13T17:59:07.411Z,11.50
2023-04-13T18:01:37.209Z,11.50
2023-04-13T18:04:06.520Z,11.40
2023-04-13T18:06:36.754Z,11.40
2023-04-13T18:09:07.294Z,11.30
2023-04-13T18:11:36.566Z,11.10
2023-04-13T18:14:05.572Z,11.10
2023-04-13T18:16:34.308Z,11.20
2023-04-13T18:19:04.324Z,11.10
2023-04-13T18:21:33.595Z,10.90
2023-04-13T18:24:02.799Z,10.60
2023-04-13T18:26:33.629Z,10.10
2023-04-13T18:29:05.060Z,9.60
2023-04-13T18:31:35.738Z,8.90
2023-04-13T18:34:07.234Z,8.80
2023-04-13T18:36:35.787Z,8.60
2023-04-13T18:39:04.797Z,8.20
2023-04-13T18:41:34.911Z,8.00
2023-04-13T18:44:03.755Z,7.80
2023-04-13T18:46:32.462Z,7.60
2023-04-13T18:49:01.531Z,7.40
2023-04-13T18:51:31.540Z,7.20
2023-04-13T18:54:00.427Z,6.90
2023-04-13T18:56:29.604Z,6.90
2023-04-13T18:58:59.849Z,6.90
2023-04-13T19:01:29.246Z,6.80
2023-04-13T19:03:58.474Z,6.60
2023-04-13T19:06:28.055Z,6.70
2023-04-13T19:08:58.061Z,6.80
2023-04-13T19:11:27.765Z,6.80
2023-04-13T19:13:56.882Z,6.90
2023-04-13T19:16:29.314Z,6.80
2023-04-13T19:19:00.017Z,6.80
2023-04-13T19:21:28.826Z,6.70
2023-04-13T19:23:58.461Z,6.50
2023-04-13T19:26:27.266Z,6.40
2023-04-13T19:28:58.099Z,6.20
2023-04-13T19:31:28.796Z,5.90
2023-04-13T19:33:57.702Z,5.90
2023-04-13T19:36:27.759Z,5.80
2023-04-13T19:38:56.822Z,5.80
2023-04-13T19:41:26.135Z,5.70
2023-04-13T19:43:58.089Z,5.40
2023-04-13T19:46:29.962Z,5.20
2023-04-13T19:49:00.500Z,5.10
2023-04-13T19:51:30.205Z,5.00
2023-04-13T19:54:01.336Z,5.00
2023-04-13T19:56:31.525Z,5.00
2023-04-13T19:59:00.345Z,5.10
2023-04-13T20:01:33.359Z,5.10
2023-04-13T20:04:05.601Z,5.20
2023-04-13T20:06:35.983Z,5.20
2023-04-13T20:09:15.019Z,5.20
2023-04-13T20:11:44.058Z,5.20
2023-04-13T20:14:14.397Z,5.30
2023-04-13T20:16:45.176Z,5.40
2023-04-13T20:19:13.993Z,5.50
2023-04-13T20:21:46.889Z,5.50
2023-04-13T20:24:15.333Z,5.60
2023-04-13T20:26:46.226Z,5.70
2023-04-13T20:29:22.587Z,5.70
2023-04-13T20:31:53.030Z,5.80
2023-04-13T20:34:22.497Z,5.90
2023-04-13T20:36:51.671Z,5.90
2023-04-13T20:39:25.498Z,6.00
2023-04-13T20:41:56.401Z,5.90
2023-04-13T20:44:27.928Z,5.80
2023-04-13T20:46:58.862Z,5.70
2023-04-13T20:49:27.595Z,5.70
2023-04-13T20:51:57.233Z,5.70
2023-04-13T20:54:25.999Z,5.50
2023-04-13T20:56:55.139Z,5.40
2023-04-13T20:59:24.506Z,5.20
2023-04-13T21:01:53.992Z,5.10
2023-04-13T21:04:24.194Z,5.00
2023-04-13T21:06:54.274Z,4.90
2023-04-13T21:09:23.362Z,4.70
2023-04-13T21:11:52.996Z,4.70
2023-04-13T21:14:24.712Z,4.60
2023-04-13T21:16:54.135Z,4.50
2023-04-13T21:19:25.534Z,4.30
2023-04-13T21:21:57.325Z,4.40
2023-04-13T21:24:27.649Z,4.20
2023-04-13T21:26:56.869Z,4.00
2023-04-13T21:29:25.757Z,3.80
2023-04-13T21:31:54.681Z,3.90
2023-04-13T21:34:29.623Z,3.90
2023-04-13T21:37:01.107Z,4.20
2023-04-13T21:39:29.878Z,4.40
2023-04-13T21:41:59.019Z,4.50
2023-04-13T21:44:29.892Z,4.50
2023-04-13T21:46:59.739Z,4.50
2023-04-13T21:49:37.749Z,4.40
2023-04-13T21:52:06.889Z,4.30
2023-04-13T21:54:35.643Z,4.10
2023-04-13T21:57:04.887Z,4.00
2023-04-13T21:59:34.366Z,3.90
2023-04-13T22:02:02.861Z,3.80
2023-04-13T22:04:33.904Z,3.60
2023-04-13T22:07:04.483Z,3.40
2023-04-13T22:09:34.456Z,3.40
2023-04-13T22:12:03.539Z,3.30
2023-04-13T22:14:34.351Z,3.30
2023-04-13T22:17:02.932Z,3.20
2023-04-13T22:19:33.089Z,3.20
2023-04-13T22:22:01.834Z,3.10
2023-04-13T22:24:30.384Z,2.90
2023-04-13T22:26:58.861Z,2.90
2023-04-13T22:29:27.687Z,2.90
2023-04-13T22:31:56.378Z,2.90
2023-04-13T22:34:27.440Z,2.90
2023-04-13T22:36:58.849Z,2.70
2023-04-13T22:39:30.531Z,2.70
2023-04-13T22:42:01.645Z,2.70
2023-04-13T22:44:34.226Z,2.70
2023-04-13T22:47:05.636Z,2.70
2023-04-13T22:49:35.287Z,2.60
2023-04-13T22:52:05.413Z,2.60
2023-04-13T22:54:36.044Z,2.60
2023-04-13T22:57:07.376Z,2.50
2023-04-13T22:59:36.744Z,2.40
2023-04-13T23:02:07.000Z,2.30
2023-04-13T23:04:38.085Z,2.30
2023-04-13T23:07:10.835Z,2.20
2023-04-13T23:09:39.088Z,2.20
2023-04-13T23:12:11.257Z,2.20
2023-04-13T23:14:40.497Z,2.10
2023-04-13T23:17:10.768Z,2.10
2023-04-13T23:19:39.759Z,2.00
2023-04-13T23:22:13.337Z,1.90
2023-04-13T23:24:46.679Z,1.80
2023-04-13T23:27:15.622Z,1.70
2023-04-13T23:29:45.498Z,1.70
2023-04-13T23:32:14.305Z,1.60
2023-04-13T23:34:43.480Z,1.70
2023-04-13T23:37:13.520Z,1.60
2023-04-13T23:39:42.364Z,1.60
2023-04-13T23:42:14.073Z,1.60
2023-04-13T23:44:42.280Z,1.60
2023-04-13T23:47:11.340Z,1.50
2023-04-13T23:49:44.206Z,1.50
2023-04-13T23:52:14.534Z,1.50
2023-04-13T23:54:44.745Z,1.40
2023-04-13T23:57:14.568Z,1.40
2023-04-13T23:59:43.490Z,1.30
